Time;durP1;ratioP1;P1;durP2;ratioP2;P2;SDS_P1;SDS_P2;PMS_P1;PMS_P2;Temp;Humidity;BMP_temperature;BMP_pressure;BME280_temperature;BME280_humidity;BME280_pressure;Samples;Min_cycle;Max_cycle;Signal;HPM_P1;HPM_P2
2020/12/28 00:01:56;;;;;;;1.10;0.90;;;7.20;99.90;;;;;;5127284;27;20658;-77
2020/12/28 00:04:22;;;;;;;1.08;0.70;;;7.20;99.90;;;;;;5119798;27;20203;-76
2020/12/28 00:06:49;;;;;;;1.33;1.08;;;7.20;99.90;;;;;;5115883;28;20249;-77
2020/12/28 00:09:16;;;;;;;1.25;1.00;;;7.20;99.90;;;;;;5130512;27;20192;-77
2020/12/28 00:11:42;;;;;;;1.00;0.82;;;7.20;99.90;;;;;;5114712;27;20617;-77
2020/12/28 00:14:08;;;;;;;0.90;0.80;;;7.10;99.90;;;;;;5114004;28;20258;-76
2020/12/28 00:16:34;;;;;;;0.95;0.85;;;7.10;99.90;;;;;;5121803;28;20732;-77
2020/12/28 00:19:01;;;;;;;1.73;0.85;;;7.10;99.90;;;;;;5111379;28;20197;-77
2020/12/28 00:21:27;;;;;;;1.10;0.80;;;7.10;99.90;;;;;;5113228;28;20213;-78
2020/12/28 00:23:54;;;;;;;1.40;0.80;;;7.10;99.90;;;;;;5114671;28;20197;-78
2020/12/28 00:26:20;;;;;;;3.83;0.80;;;7.20;99.90;;;;;;5115495;28;20192;-78
2020/12/28 00:28:47;;;;;;;1.63;0.90;;;7.20;99.90;;;;;;5119025;27;20582;-79
2020/12/28 00:31:13;;;;;;;0.98;0.70;;;7.20;99.90;;;;;;5135449;27;20227;-77
2020/12/28 00:33:39;;;;;;;0.80;0.63;;;7.20;99.90;;;;;;5131179;27;20196;-76
2020/12/28 00:36:06;;;;;;;0.90;0.73;;;7.20;99.90;;;;;;5134380;27;20212;-77
2020/12/28 00:38:32;;;;;;;0.80;0.73;;;7.10;99.90;;;;;;5117489;27;20321;-79
2020/12/28 00:40:59;;;;;;;0.90;0.70;;;7.10;99.90;;;;;;5114164;27;20231;-80
2020/12/28 00:43:25;;;;;;;1.17;0.77;;;7.20;99.90;;;;;;5115702;27;20199;-79
2020/12/28 00:45:52;;;;;;;0.80;0.70;;;7.20;99.90;;;;;;5132642;27;20196;-78
2020/12/28 00:48:18;;;;;;;1.55;0.88;;;7.20;99.90;;;;;;5124522;27;20213;-79
2020/12/28 00:50:44;;;;;;;1.30;0.75;;;7.20;99.90;;;;;;5114152;27;20533;-79
2020/12/28 00:53:10;;;;;;;1.25;0.93;;;7.30;99.90;;;;;;5115491;28;20249;-78
2020/12/28 00:55:36;;;;;;;1.40;0.80;;;7.20;99.90;;;;;;5115280;27;20231;-80
2020/12/28 00:58:03;;;;;;;1.10;0.80;;;7.20;99.90;;;;;;5130526;27;20219;-79
2020/12/28 01:00:30;;;;;;;1.00;0.70;;;7.20;99.90;;;;;;5118624;27;20262;-79
2020/12/28 01:02:56;;;;;;;1.00;0.70;;;7.10;99.90;;;;;;5114891;28;20522;-79
2020/12/28 01:05:22;;;;;;;1.17;0.73;;;7.20;99.90;;;;;;5114282;27;20651;-79
2020/12/28 01:07:48;;;;;;;1.00;0.77;;;7.20;99.90;;;;;;5119956;27;20192;-79
2020/12/28 01:10:15;;;;;;;0.90;0.70;;;7.20;99.90;;;;;;5132526;27;20200;-79
2020/12/28 01:12:41;;;;;;;1.00;0.70;;;7.20;99.90;;;;;;5115308;27;20201;-79
2020/12/28 01:15:08;;;;;;;1.00;0.73;;;7.20;99.90;;;;;;5115009;28;20216;-79
2020/12/28 01:17:34;;;;;;;1.10;0.68;;;7.20;99.90;;;;;;5122458;27;20192;-79
2020/12/28 01:20:00;;;;;;;1.00;0.70;;;7.20;99.90;;;;;;5132707;27;20196;-79
2020/12/28 01:22:26;;;;;;;1.13;0.80;;;7.20;99.90;;;;;;5115008;28;20227;-79
2020/12/28 01:24:53;;;;;;;0.85;0.70;;;7.20;99.90;;;;;;5120824;27;20211;-79
2020/12/28 01:27:19;;;;;;;1.20;0.90;;;7.10;99.90;;;;;;5114757;27;20661;-78
2020/12/28 01:29:45;;;;;;;1.00;0.80;;;7.20;99.90;;;;;;5114568;28;20204;-79
2020/12/28 01:32:12;;;;;;;0.82;0.60;;;7.20;99.90;;;;;;5115082;27;20203;-79
2020/12/28 01:34:38;;;;;;;1.02;0.80;;;7.20;99.90;;;;;;5113801;28;20250;-79
2020/12/28 01:37:05;;;;;;;0.90;0.80;;;7.20;99.90;;;;;;5113835;28;20254;-79
2020/12/28 01:39:31;;;;;;;1.00;0.70;;;7.20;99.90;;;;;;5114271;28;20235;-79
2020/12/28 01:41:57;;;;;;;1.20;0.70;;;7.20;99.90;;;;;;5114788;28;20185;-80
2020/12/28 01:44:23;;;;;;;0.90;0.80;;;7.10;99.90;;;;;;5113892;28;20201;-80
2020/12/28 01:46:50;;;;;;;1.00;0.80;;;7.10;99.90;;;;;;5115481;27;20502;-80
2020/12/28 01:49:17;;;;;;;1.10;0.88;;;7.10;99.90;;;;;;5126796;27;20189;-80
2020/12/28 01:51:44;;;;;;;0.90;0.80;;;7.30;99.90;;;;;;5132371;27;20249;-80
2020/12/28 01:54:11;;;;;;;1.65;0.80;;;7.20;99.90;;;;;;5134758;27;20248;-79
2020/12/28 01:56:39;;;;;;;1.02;0.80;;;7.20;99.90;;;;;;5125615;27;20215;-79
2020/12/28 01:59:06;;;;;;;0.95;0.70;;;7.20;99.90;;;;;;5114814;27;20192;-79
2020/12/28 02:01:39;;;;;;;1.00;0.70;;;7.20;99.90;;;;;;5113959;28;20196;-79
2020/12/28 02:04:05;;;;;;;1.13;0.82;;;7.10;99.90;;;;;;5114347;27;20189;-79
2020/12/28 02:06:32;;;;;;;0.93;0.70;;;7.20;99.90;;;;;;5120938;27;20191;-79
2020/12/28 02:08:58;;;;;;;1.10;0.77;;;7.20;99.90;;;;;;5113090;28;20197;-79
2020/12/28 02:11:26;;;;;;;1.00;0.70;;;7.20;99.90;;;;;;5114074;28;20201;-79
2020/12/28 02:13:53;;;;;;;1.10;0.80;;;7.10;99.90;;;;;;5113717;28;20197;-78
2020/12/28 02:16:19;;;;;;;0.80;0.70;;;7.10;99.90;;;;;;5113327;28;20351;-79
2020/12/28 02:18:45;;;;;;;0.90;0.70;;;7.20;99.90;;;;;;5112460;28;20581;-78
2020/12/28 02:21:12;;;;;;;0.90;0.80;;;7.20;99.90;;;;;;5113264;28;20209;-77
2020/12/28 02:23:41;;;;;;;1.20;0.80;;;7.10;99.90;;;;;;5113790;28;20253;-77
2020/12/28 02:26:07;;;;;;;1.10;0.80;;;7.20;99.90;;;;;;5113193;28;20582;-78
2020/12/28 02:28:34;;;;;;;1.10;0.70;;;7.20;99.90;;;;;;5121886;27;20222;-78
2020/12/28 02:31:00;;;;;;;0.90;0.70;;;7.20;99.90;;;;;;5117852;27;20191;-79
2020/12/28 02:33:26;;;;;;;0.90;0.70;;;7.10;99.90;;;;;;5132241;27;20200;-79
2020/12/28 02:35:52;;;;;;;1.00;0.70;;;7.20;99.90;;;;;;5133851;27;20223;-78
2020/12/28 02:38:19;;;;;;;0.90;0.77;;;7.20;99.90;;;;;;5126739;27;20197;-80
2020/12/28 02:40:46;;;;;;;0.90;0.77;;;7.20;99.90;;;;;;5120882;27;20216;-78
2020/12/28 02:43:12;;;;;;;1.02;0.80;;;7.20;99.90;;;;;;5121936;27;20201;-77
2020/12/28 02:45:38;;;;;;;1.00;0.80;;;7.20;99.90;;;;;;5113516;27;20193;-77
2020/12/28 02:48:05;;;;;;;1.10;0.70;;;7.20;99.90;;;;;;5113279;28;20193;-76
2020/12/28 02:50:31;;;;;;;0.90;0.70;;;7.20;99.90;;;;;;5113497;27;20208;-76
2020/12/28 02:52:57;;;;;;;1.00;0.80;;;7.20;99.90;;;;;;5120023;27;20716;-77
2020/12/28 02:55:23;;;;;;;0.90;0.70;;;7.20;99.90;;;;;;5125676;27;20220;-77
2020/12/28 02:57:50;;;;;;;0.80;0.63;;;7.20;99.90;;;;;;5119024;27;20193;-76
2020/12/28 03:00:17;;;;;;;1.20;0.70;;;7.20;99.90;;;;;;5112954;27;20193;-76
2020/12/28 03:02:43;;;;;;;0.90;0.60;;;7.20;99.90;;;;;;5112609;28;20211;-77
2020/12/28 03:05:09;;;;;;;1.08;0.80;;;7.20;99.90;;;;;;5114130;27;20185;-77
2020/12/28 03:07:35;;;;;;;0.90;0.70;;;7.20;99.90;;;;;;5113087;27;20221;-77
2020/12/28 03:10:03;;;;;;;0.80;0.75;;;7.20;99.90;;;;;;5124839;27;20795;-77
2020/12/28 03:12:29;;;;;;;0.80;0.50;;;7.20;99.90;;;;;;5133327;27;20208;-77
2020/12/28 03:14:56;;;;;;;0.90;0.80;;;7.20;99.90;;;;;;5133241;27;20192;-76
2020/12/28 03:17:22;;;;;;;1.02;0.73;;;7.20;99.90;;;;;;5124619;27;20245;-77
2020/12/28 03:19:48;;;;;;;0.80;0.60;;;7.20;99.90;;;;;;5112491;28;20679;-77
2020/12/28 03:22:15;;;;;;;1.00;0.70;;;7.30;99.90;;;;;;5112849;28;20535;-77
2020/12/28 03:24:41;;;;;;;1.83;0.93;;;7.30;99.90;;;;;;5127446;27;20192;-77
2020/12/28 03:27:07;;;;;;;0.95;0.70;;;7.20;99.90;;;;;;5124340;27;20196;-77
2020/12/28 03:29:34;;;;;;;0.80;0.60;;;7.20;99.90;;;;;;5112622;28;20218;-76
2020/12/28 03:32:02;;;;;;;0.90;0.70;;;7.30;99.90;;;;;;5112244;28;20254;-76
2020/12/28 03:34:28;;;;;;;0.90;0.60;;;7.20;99.90;;;;;;5112545;28;20193;-77
2020/12/28 03:36:54;;;;;;;0.93;0.80;;;7.30;99.90;;;;;;5113345;28;20257;-78
2020/12/28 03:39:21;;;;;;;0.80;0.60;;;7.20;99.90;;;;;;5118869;28;20199;-78
2020/12/28 03:41:47;;;;;;;0.90;0.70;;;7.20;99.90;;;;;;5114965;28;20563;-80
2020/12/28 03:44:13;;;;;;;0.90;0.70;;;7.20;99.90;;;;;;5132575;27;20188;-81
2020/12/28 03:46:39;;;;;;;1.20;0.73;;;7.20;99.90;;;;;;5129049;27;20612;-80
2020/12/28 03:49:06;;;;;;;0.88;0.70;;;7.30;99.90;;;;;;5112297;28;20196;-81
2020/12/28 03:51:33;;;;;;;0.88;0.70;;;7.20;99.90;;;;;;5122027;28;20188;-82
2020/12/28 03:53:59;;;;;;;0.90;0.60;;;7.20;99.90;;;;;;5132550;27;20188;-83
2020/12/28 03:56:25;;;;;;;1.00;0.70;;;7.20;99.90;;;;;;5132648;27;20277;-82
2020/12/28 03:58:51;;;;;;;0.80;0.70;;;7.20;99.90;;;;;;5134425;27;20195;-83
2020/12/28 04:01:18;;;;;;;1.15;0.80;;;7.30;99.90;;;;;;5132703;27;20184;-83
2020/12/28 04:03:44;;;;;;;0.90;0.80;;;7.20;99.90;;;;;;5123703;27;20189;-83
2020/12/28 04:06:11;;;;;;;0.82;0.65;;;7.20;99.90;;;;;;5116674;27;20192;-82
2020/12/28 04:08:38;;;;;;;1.08;0.70;;;7.20;99.90;;;;;;5116242;27;20193;-80
2020/12/28 04:11:04;;;;;;;0.80;0.60;;;7.20;99.90;;;;;;5116482;28;20230;-83
2020/12/28 04:13:30;;;;;;;1.00;0.82;;;7.20;99.90;;;;;;5117083;27;20200;-83
2020/12/28 04:15:58;;;;;;;0.90;0.70;;;7.20;99.90;;;;;;5116814;28;20365;-84
2020/12/28 04:18:25;;;;;;;1.10;0.80;;;7.30;99.90;;;;;;5116047;27;20203;-79
2020/12/28 04:20:51;;;;;;;1.23;0.90;;;7.20;99.90;;;;;;5116216;28;20642;-79
2020/12/28 04:23:18;;;;;;;1.98;0.80;;;7.20;99.90;;;;;;5116219;28;20215;-78
2020/12/28 04:25:45;;;;;;;0.90;0.65;;;7.20;99.90;;;;;;5128677;27;20184;-78
2020/12/28 04:28:11;;;;;;;0.90;0.60;;;7.30;99.90;;;;;;5132601;27;20379;-78
2020/12/28 04:30:37;;;;;;;0.90;0.70;;;7.30;99.90;;;;;;5136493;27;20222;-78
2020/12/28 04:33:03;;;;;;;0.90;0.70;;;7.30;99.90;;;;;;5119567;27;20635;-78
2020/12/28 04:35:30;;;;;;;0.80;0.60;;;7.20;99.90;;;;;;5122492;27;20599;-78
2020/12/28 04:37:56;;;;;;;0.90;0.80;;;7.20;99.90;;;;;;5123554;27;20188;-78
2020/12/28 04:40:23;;;;;;;0.80;0.70;;;7.30;99.90;;;;;;5115060;28;20288;-78
2020/12/28 04:42:50;;;;;;;1.00;0.70;;;7.20;99.90;;;;;;5115695;27;20245;-78
2020/12/28 04:45:16;;;;;;;0.90;0.68;;;7.30;99.90;;;;;;5115745;28;20208;-78
2020/12/28 04:47:43;;;;;;;0.85;0.68;;;7.30;99.90;;;;;;5129133;27;20535;-77
2020/12/28 04:50:09;;;;;;;1.10;0.88;;;7.30;99.90;;;;;;5135059;27;20207;-78
2020/12/28 04:52:36;;;;;;;1.10;0.80;;;7.30;99.90;;;;;;5128363;27;20196;-81
2020/12/28 04:55:03;;;;;;;0.90;0.80;;;7.30;99.90;;;;;;5115345;28;20196;-80
2020/12/28 04:57:30;;;;;;;0.98;0.73;;;7.20;99.90;;;;;;5124237;27;20558;-79
2020/12/28 04:59:57;;;;;;;1.10;0.90;;;7.30;99.90;;;;;;5134681;27;20196;-80
2020/12/28 05:02:23;;;;;;;0.90;0.60;;;7.20;99.90;;;;;;5119321;27;20253;-79
2020/12/28 05:04:50;;;;;;;0.90;0.73;;;7.20;99.90;;;;;;5115244;28;20200;-79
2020/12/28 05:07:17;;;;;;;1.25;0.80;;;7.20;99.90;;;;;;5114096;28;20214;-79
2020/12/28 05:09:43;;;;;;;0.80;0.70;;;7.20;99.90;;;;;;5114917;27;20254;-78
2020/12/28 05:12:10;;;;;;;1.65;0.80;;;7.20;99.90;;;;;;5117201;27;20204;-80
2020/12/28 05:14:37;;;;;;;0.90;0.60;;;7.20;99.90;;;;;;5135616;27;20217;-80
2020/12/28 05:17:05;;;;;;;0.90;0.60;;;7.20;99.90;;;;;;5134019;27;20298;-81
2020/12/28 05:19:33;;;;;;;0.90;0.65;;;7.30;99.90;;;;;;5116295;27;20189;-81
2020/12/28 05:21:59;;;;;;;1.13;0.80;;;7.20;99.90;;;;;;5115446;27;20224;-81
2020/12/28 05:24:26;;;;;;;0.80;0.60;;;7.20;99.90;;;;;;5135020;27;20294;-82
2020/12/28 05:26:52;;;;;;;1.20;0.80;;;7.30;99.90;;;;;;5135643;27;20196;-80
2020/12/28 05:29:20;;;;;;;1.10;0.70;;;7.30;99.90;;;;;;5134633;27;20712;-80
2020/12/28 05:31:49;;;;;;;1.10;0.60;;;7.20;99.90;;;;;;5114798;28;20192;-79
2020/12/28 05:34:18;;;;;;;0.80;0.60;;;7.20;99.90;;;;;;5114147;28;20185;-79
2020/12/28 05:36:49;;;;;;;0.90;0.70;;;7.30;99.90;;;;;;5113730;28;20216;-80
2020/12/28 05:39:16;;;;;;;1.15;0.70;;;7.30;99.90;;;;;;5114445;28;20625;-80
2020/12/28 05:41:56;;;;;;;0.90;0.77;;;7.30;99.90;;;;;;5113886;28;20246;-79
2020/12/28 05:44:26;;;;;;;0.80;0.60;;;7.20;99.90;;;;;;5114433;27;20532;-80
2020/12/28 05:47:03;;;;;;;0.80;0.63;;;7.30;99.90;;;;;;5121636;27;20211;-80
2020/12/28 05:49:38;;;;;;;0.80;0.60;;;7.20;99.90;;;;;;5134063;27;20200;-79
2020/12/28 05:52:05;;;;;;;0.90;0.80;;;7.10;99.90;;;;;;5113740;28;20180;-80
2020/12/28 05:54:33;;;;;;;0.80;0.70;;;7.20;99.90;;;;;;5114170;28;20238;-80
2020/12/28 05:56:59;;;;;;;1.00;0.65;;;7.20;99.90;;;;;;5116599;27;20224;-78
2020/12/28 05:59:26;;;;;;;0.90;0.63;;;7.30;99.90;;;;;;5116615;27;20205;-78
2020/12/28 06:01:53;;;;;;;1.10;0.80;;;7.20;99.90;;;;;;5114068;27;20208;-78
2020/12/28 06:04:20;;;;;;;0.98;0.80;;;7.20;99.90;;;;;;5130754;27;20206;-78
2020/12/28 06:06:47;;;;;;;1.00;0.88;;;7.20;99.90;;;;;;5127946;27;20636;-79
2020/12/28 06:09:18;;;;;;;1.00;0.70;;;7.20;99.90;;;;;;5128180;27;20200;-79
2020/12/28 06:11:44;;;;;;;1.20;0.60;;;7.20;99.90;;;;;;5114160;27;20208;-79
2020/12/28 06:14:15;;;;;;;0.90;0.77;;;7.30;99.90;;;;;;5131304;27;20195;-80
2020/12/28 06:16:42;;;;;;;0.90;0.70;;;7.20;99.90;;;;;;5133884;27;20219;-80
2020/12/28 06:19:20;;;;;;;1.13;0.80;;;7.30;99.90;;;;;;5133667;27;20514;-78
2020/12/28 06:21:46;;;;;;;1.33;0.77;;;7.30;99.90;;;;;;5132048;27;20207;-77
2020/12/28 06:24:13;;;;;;;0.90;0.70;;;7.30;99.90;;;;;;5113749;28;20204;-78
2020/12/28 06:26:39;;;;;;;1.33;0.70;;;7.30;99.90;;;;;;5124540;27;20192;-78
2020/12/28 06:29:06;;;;;;;0.80;0.70;;;7.30;99.90;;;;;;5133472;27;20184;-78
2020/12/28 06:31:32;;;;;;;0.80;0.70;;;7.20;99.90;;;;;;5126026;27;20559;-77
2020/12/28 06:33:58;;;;;;;1.05;0.70;;;7.20;99.90;;;;;;5115265;27;20189;-77
2020/12/28 06:36:26;;;;;;;0.90;0.65;;;7.20;99.90;;;;;;5113294;27;20257;-77
2020/12/28 06:39:02;;;;;;;0.80;0.70;;;7.30;99.90;;;;;;5171501;27;20836;-78
2020/12/28 06:41:30;;;;;;;0.90;0.70;;;7.30;99.90;;;;;;5171769;27;20195;-79
2020/12/28 06:43:59;;;;;;;0.90;0.70;;;7.30;99.90;;;;;;5151989;27;20247;-78
2020/12/28 06:46:26;;;;;;;0.90;0.70;;;7.30;99.90;;;;;;5160840;27;20500;-76
2020/12/28 06:48:53;;;;;;;0.90;0.70;;;7.30;99.90;;;;;;5160353;27;20202;-76
2020/12/28 06:51:22;;;;;;;0.90;0.70;;;7.30;99.90;;;;;;5150584;27;20195;-77
2020/12/28 06:53:52;;;;;;;1.20;0.90;;;7.30;99.90;;;;;;5151407;27;20199;-77
2020/12/28 06:56:19;;;;;;;0.90;0.80;;;7.20;99.90;;;;;;5151983;27;20195;-77
2020/12/28 06:58:57;;;;;;;1.00;0.70;;;7.30;99.90;;;;;;5170625;27;20206;-77
2020/12/28 07:01:25;;;;;;;1.00;0.70;;;7.30;99.90;;;;;;5169682;27;20205;-77
2020/12/28 07:03:52;;;;;;;0.90;0.70;;;7.30;99.90;;;;;;5151524;27;20196;-79
2020/12/28 07:06:19;;;;;;;0.80;0.70;;;7.20;99.90;;;;;;5150820;27;20192;-79
2020/12/28 07:08:46;;;;;;;1.33;0.98;;;7.30;99.90;;;;;;5150354;27;20192;-79
2020/12/28 07:11:18;;;;;;;1.20;0.70;;;7.30;99.90;;;;;;5154465;27;20199;-79
2020/12/28 07:13:45;;;;;;;0.93;0.80;;;7.30;99.90;;;;;;5167625;27;20689;-81
2020/12/28 07:16:11;;;;;;;1.17;0.90;;;7.20;99.90;;;;;;5166946;27;20536;-77
2020/12/28 07:18:38;;;;;;;1.10;0.88;;;7.20;99.90;;;;;;5150235;27;20212;-77
2020/12/28 07:21:05;;;;;;;1.00;0.75;;;7.20;99.90;;;;;;5156404;27;20526;-77
2020/12/28 07:23:32;;;;;;;0.93;0.70;;;7.20;99.90;;;;;;5169302;27;20195;-77
2020/12/28 07:26:06;;;;;;;1.00;0.70;;;7.20;99.90;;;;;;5155849;27;20202;-77
2020/12/28 07:28:33;;;;;;;1.00;0.80;;;7.20;99.90;;;;;;5153517;27;20269;-77
2020/12/28 07:31:02;;;;;;;1.10;0.80;;;7.10;99.90;;;;;;5164864;27;20194;-77
2020/12/28 07:33:29;;;;;;;1.30;0.90;;;7.20;99.90;;;;;;5150426;27;20192;-76
2020/12/28 07:36:06;;;;;;;1.00;0.80;;;7.20;99.90;;;;;;5150087;27;20208;-77
2020/12/28 07:38:33;;;;;;;0.90;0.80;;;7.20;99.90;;;;;;5149769;27;20231;-77
2020/12/28 07:40:59;;;;;;;1.00;0.88;;;7.20;99.90;;;;;;5150063;27;20195;-77
2020/12/28 07:43:26;;;;;;;0.90;0.80;;;7.30;99.90;;;;;;5158308;27;20194;-77
2020/12/28 07:45:53;;;;;;;1.30;1.00;;;7.20;99.90;;;;;;5170196;27;20195;-77
2020/12/28 07:48:24;;;;;;;1.00;0.82;;;7.20;99.90;;;;;;5151693;27;20199;-77
2020/12/28 07:50:52;;;;;;;1.30;0.80;;;7.20;99.90;;;;;;5136058;27;20257;-77
2020/12/28 07:53:25;;;;;;;1.40;0.80;;;7.20;99.90;;;;;;5135654;27;20200;-76
2020/12/28 07:55:58;;;;;;;1.02;0.90;;;7.20;99.90;;;;;;5144364;27;20200;-77
2020/12/28 07:58:32;;;;;;;1.90;0.75;;;7.20;99.90;;;;;;5153983;27;20227;-76
2020/12/28 08:01:02;;;;;;;1.00;0.70;;;7.20;99.90;;;;;;5156608;27;20203;-77
2020/12/28 08:03:35;;;;;;;1.52;0.80;;;7.30;99.90;;;;;;5145029;27;20521;-76
2020/12/28 08:06:05;;;;;;;1.05;0.85;;;7.20;99.90;;;;;;5134804;27;20616;-76
2020/12/28 08:08:31;;;;;;;1.00;0.80;;;7.20;99.90;;;;;;5135149;27;20509;-77
2020/12/28 08:11:04;;;;;;;0.90;0.70;;;7.20;99.90;;;;;;5135441;27;20654;-76
2020/12/28 08:13:32;;;;;;;1.15;0.73;;;7.30;99.90;;;;;;5135591;27;20196;-77
2020/12/28 08:16:08;;;;;;;2.42;0.93;;;7.20;99.90;;;;;;5135182;27;20192;-77
2020/12/28 08:18:45;;;;;;;1.30;1.00;;;7.20;99.90;;;;;;5135706;27;20207;-77
2020/12/28 08:21:11;;;;;;;1.30;1.20;;;7.20;99.90;;;;;;5140480;27;20202;-78
2020/12/28 08:23:37;;;;;;;1.10;1.00;;;7.20;99.90;;;;;;5135739;27;20192;-77
2020/12/28 08:26:15;;;;;;;0.90;0.75;;;7.20;99.90;;;;;;5145169;27;20195;-76
2020/12/28 08:28:41;;;;;;;1.00;0.90;;;7.20;99.90;;;;;;5146461;27;20179;-77
2020/12/28 08:31:07;;;;;;;1.10;1.00;;;7.20;99.90;;;;;;5138657;27;20632;-77
2020/12/28 08:33:36;;;;;;;0.90;0.70;;;7.20;99.90;;;;;;5149334;27;20195;-77
2020/12/28 08:36:03;;;;;;;1.00;0.80;;;7.30;99.90;;;;;;5145109;27;20199;-77
2020/12/28 08:38:32;;;;;;;0.93;0.80;;;7.30;99.90;;;;;;5144794;27;20224;-77
2020/12/28 08:40:58;;;;;;;1.30;0.90;;;7.30;99.90;;;;;;5154133;27;20286;-77
2020/12/28 08:43:25;;;;;;;1.20;0.85;;;7.30;99.90;;;;;;5155607;27;20191;-78
2020/12/28 08:46:01;;;;;;;1.00;0.80;;;7.30;99.90;;;;;;5148374;27;20589;-77
2020/12/28 08:48:28;;;;;;;1.40;0.90;;;7.30;99.90;;;;;;5134361;27;20172;-77
2020/12/28 08:50:54;;;;;;;1.05;0.95;;;7.30;99.90;;;;;;5150470;27;20204;-77
2020/12/28 08:53:24;;;;;;;1.40;1.10;;;7.20;99.90;;;;;;5144459;27;20204;-79
2020/12/28 08:56:03;;;;;;;1.58;0.90;;;7.30;99.90;;;;;;5151200;27;20240;-77
2020/12/28 08:58:29;;;;;;;0.90;0.80;;;7.20;99.90;;;;;;5138066;27;20222;-77
2020/12/28 09:00:55;;;;;;;1.88;0.90;;;7.30;99.90;;;;;;5155511;27;20199;-77
2020/12/28 09:03:22;;;;;;;1.30;1.20;;;7.30;99.90;;;;;;5153593;27;20255;-77
2020/12/28 09:05:48;;;;;;;2.00;0.80;;;7.30;99.90;;;;;;5143239;27;20211;-77
2020/12/28 09:08:14;;;;;;;1.08;0.80;;;7.30;99.90;;;;;;5134578;27;20203;-75
2020/12/28 09:10:41;;;;;;;1.23;1.00;;;7.20;99.90;;;;;;5151752;27;20191;-75
2020/12/28 09:13:07;;;;;;;1.20;1.10;;;7.20;99.90;;;;;;5154549;27;20195;-77
2020/12/28 09:15:34;;;;;;;1.23;0.88;;;7.20;99.90;;;;;;5152603;27;20540;-76
2020/12/28 09:18:00;;;;;;;2.55;0.90;;;7.30;99.90;;;;;;5153356;27;20219;-76
2020/12/28 09:20:26;;;;;;;1.65;1.10;;;7.30;99.90;;;;;;5144441;27;20257;-77
2020/12/28 09:22:52;;;;;;;1.00;0.90;;;7.30;99.90;;;;;;5153184;27;20241;-77
2020/12/28 09:25:19;;;;;;;1.67;1.02;;;7.30;99.90;;;;;;5154760;27;20578;-77
2020/12/28 09:27:46;;;;;;;1.20;1.00;;;7.20;99.90;;;;;;5142428;27;20560;-77
2020/12/28 09:30:12;;;;;;;2.97;1.00;;;7.20;99.90;;;;;;5152353;27;20192;-77
2020/12/28 09:32:39;;;;;;;2.30;0.90;;;7.20;99.90;;;;;;5152317;27;20197;-77
2020/12/28 09:35:06;;;;;;;1.65;1.55;;;7.30;99.90;;;;;;5152757;27;20611;-77
2020/12/28 09:37:32;;;;;;;1.00;0.90;;;7.30;99.90;;;;;;5153883;27;20234;-77
2020/12/28 09:39:58;;;;;;;1.10;0.98;;;7.40;99.90;;;;;;5152787;27;20647;-77
2020/12/28 09:42:24;;;;;;;1.10;0.80;;;7.40;99.90;;;;;;5139600;27;20624;-77
2020/12/28 09:44:51;;;;;;;1.27;0.90;;;7.30;99.90;;;;;;5143784;27;20634;-77
2020/12/28 09:47:18;;;;;;;1.70;1.08;;;7.40;99.90;;;;;;5152085;27;20227;-78
2020/12/28 09:49:44;;;;;;;1.17;0.82;;;7.40;99.90;;;;;;5153388;27;20200;-77
2020/12/28 09:52:10;;;;;;;1.08;0.85;;;7.40;99.90;;;;;;5143817;27;20223;-77
2020/12/28 09:54:37;;;;;;;1.23;0.95;;;7.40;99.90;;;;;;5136220;27;20201;-77
2020/12/28 09:57:05;;;;;;;1.42;0.90;;;7.30;99.90;;;;;;5153336;27;20198;-78
2020/12/28 09:59:33;;;;;;;1.30;0.90;;;7.40;99.90;;;;;;5136133;27;20204;-76
2020/12/28 10:02:00;;;;;;;1.67;1.13;;;7.50;99.90;;;;;;5133171;27;20583;-76
2020/12/28 10:04:26;;;;;;;0.93;0.82;;;7.50;99.90;;;;;;5133251;27;20253;-77
2020/12/28 10:06:53;;;;;;;1.40;0.90;;;7.60;99.90;;;;;;5133634;27;20595;-78
2020/12/28 10:09:19;;;;;;;1.10;0.90;;;7.50;99.90;;;;;;5134342;27;20210;-78
2020/12/28 10:11:45;;;;;;;1.10;1.00;;;7.50;99.90;;;;;;5133019;27;20196;-78
2020/12/28 10:14:13;;;;;;;1.05;0.93;;;7.50;99.90;;;;;;5132860;27;20200;-77
2020/12/28 10:16:39;;;;;;;1.00;0.88;;;7.50;99.90;;;;;;5142702;27;20195;-77
2020/12/28 10:19:06;;;;;;;1.50;0.90;;;7.40;99.90;;;;;;5133066;27;20268;-77
2020/12/28 10:21:33;;;;;;;1.00;0.90;;;7.50;99.90;;;;;;5134567;27;20264;-77
2020/12/28 10:23:59;;;;;;;1.00;0.80;;;7.50;99.90;;;;;;5133102;27;20199;-77
2020/12/28 10:26:27;;;;;;;0.98;0.88;;;7.50;99.90;;;;;;5134170;27;20203;-77
2020/12/28 10:28:54;;;;;;;1.00;0.90;;;7.40;99.90;;;;;;5132498;27;20210;-77
2020/12/28 10:31:22;;;;;;;1.25;0.88;;;7.50;99.90;;;;;;5132885;27;20192;-77
2020/12/28 10:33:50;;;;;;;1.25;0.90;;;7.50;99.90;;;;;;5137907;27;20520;-77
2020/12/28 10:36:18;;;;;;;1.40;1.00;;;7.50;99.90;;;;;;5144478;27;20202;-83
2020/12/28 10:38:45;;;;;;;1.10;0.90;;;7.50;99.90;;;;;;5154103;27;20215;-83
2020/12/28 10:41:12;;;;;;;2.85;1.08;;;7.50;99.90;;;;;;5145121;27;20207;-83
2020/12/28 10:43:38;;;;;;;1.50;0.90;;;7.50;99.90;;;;;;5153737;27;20243;-83
2020/12/28 10:46:07;;;;;;;1.30;1.00;;;7.60;99.90;;;;;;5154222;27;20188;-83
2020/12/28 10:48:33;;;;;;;2.97;1.75;;;7.60;99.90;;;;;;5144262;27;20188;-84
2020/12/28 10:50:59;;;;;;;1.85;1.10;;;7.60;99.90;;;;;;5147264;27;20195;-82
2020/12/28 10:53:26;;;;;;;1.90;0.90;;;7.60;99.90;;;;;;5132806;28;20196;-82
2020/12/28 10:55:53;;;;;;;1.23;0.93;;;7.70;99.90;;;;;;5132395;27;20219;-83
2020/12/28 10:58:19;;;;;;;3.42;1.00;;;7.70;99.90;;;;;;5132295;27;20241;-83
2020/12/28 11:00:45;;;;;;;1.52;0.80;;;7.70;99.90;;;;;;5132921;27;20218;-82
2020/12/28 11:03:11;;;;;;;1.52;1.10;;;7.60;99.90;;;;;;5133790;27;20192;-83
2020/12/28 11:05:38;;;;;;;1.58;1.10;;;7.60;99.90;;;;;;5131161;28;20193;-82
2020/12/28 11:08:04;;;;;;;2.20;1.35;;;7.60;99.90;;;;;;5131964;28;20188;-83
2020/12/28 11:10:31;;;;;;;1.30;1.00;;;7.60;99.90;;;;;;5132267;28;20285;-82
2020/12/28 11:12:57;;;;;;;1.10;1.00;;;7.60;99.90;;;;;;5139279;27;20248;-83
2020/12/28 11:15:23;;;;;;;1.20;0.90;;;7.60;99.90;;;;;;5133729;27;20196;-82
2020/12/28 11:17:50;;;;;;;1.52;1.38;;;7.60;99.90;;;;;;5132145;27;20223;-82
2020/12/28 11:20:16;;;;;;;1.73;1.05;;;7.70;99.90;;;;;;5133924;27;20192;-83
2020/12/28 11:22:43;;;;;;;2.08;0.90;;;7.70;99.90;;;;;;5132725;27;20193;-82
2020/12/28 11:25:10;;;;;;;1.70;1.35;;;7.60;99.90;;;;;;5135307;27;20223;-82
2020/12/28 11:27:37;;;;;;;1.23;0.90;;;7.60;99.90;;;;;;5141204;27;20188;-82
2020/12/28 11:30:04;;;;;;;1.33;1.00;;;7.50;99.90;;;;;;5136195;27;20702;-82
2020/12/28 11:32:31;;;;;;;2.95;0.90;;;7.60;99.90;;;;;;5143900;27;20195;-82
2020/12/28 11:34:57;;;;;;;1.92;0.95;;;7.60;99.90;;;;;;5156413;27;20183;-82
2020/12/28 11:37:23;;;;;;;1.63;0.90;;;7.60;99.90;;;;;;5141154;27;20231;-82
2020/12/28 11:39:49;;;;;;;1.90;1.00;;;7.60;99.90;;;;;;5135665;27;20200;-82
2020/12/28 11:42:18;;;;;;;2.38;1.00;;;7.60;99.90;;;;;;5143212;27;20203;-82
2020/12/28 11:44:46;;;;;;;0.90;0.80;;;7.50;99.90;;;;;;5137282;27;20531;-82
2020/12/28 11:47:13;;;;;;;1.95;1.02;;;7.50;99.90;;;;;;5136175;27;20502;-82
2020/12/28 11:49:39;;;;;;;1.42;1.08;;;7.50;99.90;;;;;;5136304;27;20240;-82
2020/12/28 11:52:06;;;;;;;1.00;0.90;;;7.50;99.90;;;;;;5138918;27;20187;-82
2020/12/28 11:54:32;;;;;;;1.75;1.30;;;7.50;99.90;;;;;;5151313;27;20256;-82
2020/12/28 11:56:58;;;;;;;1.40;1.00;;;7.60;99.90;;;;;;5142622;27;20200;-82
2020/12/28 11:59:24;;;;;;;3.17;1.15;;;7.60;99.90;;;;;;5138509;27;20228;-82
2020/12/28 12:01:51;;;;;;;4.80;1.00;;;7.60;99.90;;;;;;5135652;27;20196;-83
2020/12/28 12:04:18;;;;;;;1.75;0.90;;;7.60;99.90;;;;;;5148270;27;20245;-82
2020/12/28 12:06:44;;;;;;;2.13;1.20;;;7.60;99.90;;;;;;5141898;27;20187;-82
2020/12/28 12:09:14;;;;;;;1.23;0.90;;;7.60;99.90;;;;;;5156282;27;20188;-77
2020/12/28 12:11:46;;;;;;;1.00;0.90;;;7.60;99.90;;;;;;5143814;27;20196;-78
2020/12/28 12:14:13;;;;;;;1.00;0.80;;;7.50;99.90;;;;;;5135681;27;20204;-77
2020/12/28 12:16:39;;;;;;;1.27;1.17;;;7.50;99.90;;;;;;5142114;27;20264;-77
2020/12/28 12:19:07;;;;;;;2.00;1.02;;;7.50;99.90;;;;;;5154400;27;20207;-78
2020/12/28 12:21:34;;;;;;;1.30;0.90;;;7.60;99.90;;;;;;5148342;27;20192;-81
2020/12/28 12:24:00;;;;;;;1.80;1.45;;;7.50;99.90;;;;;;5136367;27;20593;-82
2020/12/28 12:26:27;;;;;;;1.10;0.90;;;7.50;99.90;;;;;;5139317;27;20196;-79
2020/12/28 12:28:54;;;;;;;1.23;0.90;;;7.50;99.90;;;;;;5135307;27;20558;-76
2020/12/28 12:31:21;;;;;;;1.60;1.15;;;7.50;99.90;;;;;;5136860;27;20196;-80
2020/12/28 12:33:48;;;;;;;1.30;0.90;;;7.50;99.90;;;;;;5135831;27;20192;-77
2020/12/28 12:36:16;;;;;;;1.52;0.90;;;7.60;99.90;;;;;;5135130;27;20199;-81
2020/12/28 12:38:43;;;;;;;1.98;0.90;;;7.60;99.90;;;;;;5140387;27;20240;-79
2020/12/28 12:41:13;;;;;;;2.72;1.20;;;7.60;99.90;;;;;;5151465;27;20214;-79
2020/12/28 12:43:40;;;;;;;1.20;1.10;;;7.60;99.90;;;;;;5154034;27;20255;-79
2020/12/28 12:46:08;;;;;;;7.13;1.40;;;7.60;99.90;;;;;;5155761;27;20199;-79
2020/12/28 12:48:34;;;;;;;1.15;0.82;;;7.60;99.90;;;;;;5154593;27;20203;-77
2020/12/28 12:51:01;;;;;;;1.40;1.10;;;7.60;99.90;;;;;;5146156;27;20497;-77
2020/12/28 12:53:28;;;;;;;1.55;1.27;;;7.60;99.90;;;;;;5146456;27;20188;-79
2020/12/28 12:55:55;;;;;;;1.63;1.27;;;7.60;99.90;;;;;;5144513;27;20251;-77
2020/12/28 12:58:21;;;;;;;1.27;0.82;;;7.60;99.90;;;;;;5154809;27;20211;-74